Mount Clemens, MI

09:36 PM EDT del 17 Settembre 2014 (GMT -0400)
Heydenreich & Cass, North Branch Valley sub | Change Station
CLOSE
Current Station
Stazione meteo personale
Location: Clinton Twp, MI
Altitudine: 595 ft
Stazioni meteo nelle vicinanze

Alt. 595 ft 42.61 °N, 82.91 °W | Updated 2 minutes ago

Clear
Sereno
56.2 °F
Sembra 56.2 °F
N
0.0
Vento Variabile Vento da Nord
Gusts 0.0 mph

Oggi
Massima -- | Minima -- °F
--% Possibilità di precip.
Ieri
Massima -- | Minima -- °F
Precip. -- in
7:13 AM 7:37 PM
Luna calante, 31% visible
Pressione 30.00 in
Visibilità 10.0 miglia
Nuvole Sereno
Punto di rugiada 51 °F
Umidità 82%
Piovosità -999.00 in
Spessore del manto nevoso Non disponibile.
Raggi UV 0 fuori da 12
Polline 4.30 fuori da 12
Ozono Buono
PM2.5 Moderato
Flu Activity Non disponibile.
METAR KMTC 180058Z AUTO 00000KT 10SM CLR 11/08 A2998 RMK AO2 SLP157 T01130077 $

More Conditions Fewer Conditions

Pressione 30.00 in
Visibilità 10.0 miglia
Nuvole Sereno
Punto di rugiada 51 °F
Umidità 82%
Piovosità -999.00 in
Spessore del manto nevoso Non disponibile.
Raggi UV 0 fuori da 12
Polline 4.30 fuori da 12
Ozono Buono
PM2.5 Moderato
Flu Activity Non disponibile.
METAR KMTC 180058Z AUTO 00000KT 10SM CLR 11/08 A2998 RMK AO2 SLP157 T01130077 $

More Conditions Fewer Conditions

10-Day Weather Forecast

Almanac

Astronomia

Sep. 17, 2014 Alba Tramonto
Ora attuale 07:13 EDT 19:37 EDT
Crepuscolo civile 06:45 EDT 20:05 EDT
Crepuscolo nautico 06:11 EDT 20:39 EDT
Crepuscolo astronomico 05:37 EDT 21:13 EDT
Luna 01:06 EDT (9/17) 15:52 EDT (9/17)
Estensione della luce visibile 13h 20m
Lunghezza del giorno
12h 24m
Tomorrow will be 2m 52s shorter.
Luna calante, 31% of the Moon is Illuminated
Oggi
Luna calante
Set 24
Nuovo
Ott 1
Primo quarto
Ott 8
Luna piena
Ott 15
Ultimo quarto

Gli estremi di oggi

State Highs State Lows

Community

WunderPhotos

Upload Photos

1,754,248 foto caricate!

Nearby

Qualità dell'aria

  Qualità dell'aria Indice AQ Inquinante
Ieri Buono
PM10
Ieri Buono
OZONE
Attuale Moderato
PM2.5
Attuale Buono
OZONE
Mercoledì Buono
OZONE
Mercoledì Buono
PM2.5
Giovedì Buono
OZONE
Giovedì Buono
PM2.5
Venerdì Buono
OZONE
Venerdì Buono
PM2.5
Sabato Buono
OZONE
Sabato Buono
PM2.5

Profondità neve

Stazione Profondità Altitudine
Non sono state evidenziate nuove nevicate

Attività sismica

Città  Distanza Mag. Data & Ora
Non sono state riportate attività sismiche nelle vicinanze.
Minimo Magnitudo Mostrato è 2.5.

Temperature delle acque costiere

Località Temperatura
Nessun dato dalle stazioni

Stazioni meteo nelle vicinanze